Time;durP1;ratioP1;P1;durP2;ratioP2;P2;SDS_P1;SDS_P2;PMS_P1;PMS_P2;Temp;Humidity;BMP_temperature;BMP_pressure;BME280_temperature;BME280_humidity;BME280_pressure;Samples;Min_cycle;Max_cycle;Signal;HPM_P1;HPM_P2
2021/04/05 00:00:33;;;;;;;0.8;0.8;;;;;;;2.13;67.72168;937.0468;;;;
2021/04/05 00:02:59;;;;;;;0.5;0.4;;;;;;;2.13;67.61133;936.9597;;;;
2021/04/05 00:05:24;;;;;;;0.4;0.4;;;;;;;2.1;67.78516;936.8989;;;;
2021/04/05 00:07:50;;;;;;;0.4;0.4;;;;;;;1.93;68.40625;936.8903;;;;
2021/04/05 00:10:17;;;;;;;0.7;0.5;;;;;;;1.83;68.88379;936.8474;;;;
2021/04/05 00:12:42;;;;;;;0.7;0.7;;;;;;;1.72;69.41309;936.7772;;;;
2021/04/05 00:15:11;;;;;;;1.1;0.5;;;;;;;1.86;69.22461;936.7612;;;;
2021/04/05 00:17:44;;;;;;;1.6;0.8;;;;;;;1.9;70.42773;936.6653;;;;
2021/04/05 00:20:13;;;;;;;2.1;0.8;;;;;;;1.97;69.91309;936.6744;;;;
2021/04/05 00:22:43;;;;;;;0.9;0.8;;;;;;;2.07;68.74316;936.7012;;;;
2021/04/05 00:25:08;;;;;;;5;0.8;;;;;;;2.05;68.31543;936.6049;;;;
2021/04/05 00:27:34;;;;;;;1.1;0.7;;;;;;;2.19;68.20117;936.6931;;;;
2021/04/05 00:29:59;;;;;;;1;0.8;;;;;;;2.14;67.94727;936.6277;;;;
2021/04/05 00:32:26;;;;;;;1.9;1;;;;;;;2.1;68.03125;936.6082;;;;
2021/04/05 00:34:51;;;;;;;1.1;1;;;;;;;2.12;67.89941;936.6033;;;;
2021/04/05 00:37:18;;;;;;;5.4;1.1;;;;;;;1.97;68.48047;936.4489;;;;
2021/04/05 00:39:43;;;;;;;2.4;1.1;;;;;;;1.94;68.82227;936.3599;;;;
2021/04/05 00:42:08;;;;;;;0.8;0.7;;;;;;;1.97;68.69336;936.3699;;;;
2021/04/05 00:44:33;;;;;;;0.7;0.7;;;;;;;1.97;68.80566;936.3069;;;;
2021/04/05 00:46:59;;;;;;;0.7;0.7;;;;;;;2.07;68.38379;936.1805;;;;
2021/04/05 00:49:24;;;;;;;0.6;0.5;;;;;;;2.19;67.91113;936.1803;;;;
2021/04/05 00:51:49;;;;;;;1.1;1;;;;;;;2.25;67.61914;936.1067;;;;
2021/04/05 00:54:15;;;;;;;1.7;1.1;;;;;;;2.19;67.84375;936.1827;;;;
2021/04/05 00:56:41;;;;;;;1;0.7;;;;;;;2.17;68.05371;936.1735;;;;
2021/04/05 00:59:07;;;;;;;2.8;1.4;;;;;;;2.07;68.2168;936.1423;;;;
2021/04/05 01:01:34;;;;;;;3.4;1;;;;;;;2.06;68.32715;936.1238;;;;
2021/04/05 01:03:59;;;;;;;0.5;0.5;;;;;;;1.93;68.88672;936.0549;;;;
2021/04/05 01:06:24;;;;;;;1.3;0.9;;;;;;;2.01;68.54297;936.0048;;;;
2021/04/05 01:08:49;;;;;;;2.4;0.8;;;;;;;1.97;68.60449;935.9702;;;;
2021/04/05 01:11:15;;;;;;;0.6;0.6;;;;;;;1.93;68.94238;935.8711;;;;
2021/04/05 01:13:41;;;;;;;1.1;1;;;;;;;1.84;69.28711;935.845;;;;
2021/04/05 01:16:17;;;;;;;0.8;0.5;;;;;;;1.81;69.4502;935.7709;;;;
2021/04/05 01:18:43;;;;;;;1.7;0.9;;;;;;;1.74;69.98828;935.7609;;;;
2021/04/05 01:21:09;;;;;;;2.4;1.1;;;;;;;1.73;70.04102;935.7064;;;;
2021/04/05 01:23:34;;;;;;;0.8;0.8;;;;;;;1.77;69.83594;935.6923;;;;
2021/04/05 01:26:00;;;;;;;1.8;1.3;;;;;;;1.91;69.36719;935.7647;;;;
2021/04/05 01:28:25;;;;;;;1.1;1;;;;;;;2.1;68.82617;935.6699;;;;
2021/04/05 01:30:52;;;;;;;1;0.8;;;;;;;2.19;68.45996;935.6164;;;;
2021/04/05 01:33:18;;;;;;;0.9;0.8;;;;;;;2.21;67.83594;935.524;;;;
2021/04/05 01:35:45;;;;;;;0.5;0.5;;;;;;;2.12;68.04688;935.4986;;;;
2021/04/05 01:38:10;;;;;;;0.8;0.5;;;;;;;1.99;68.67383;935.5106;;;;
2021/04/05 01:40:40;;;;;;;0.9;0.6;;;;;;;1.95;68.80078;935.4401;;;;
2021/04/05 01:43:05;;;;;;;2;0.9;;;;;;;1.89;69.1377;935.4253;;;;
2021/04/05 01:45:30;;;;;;;0.9;0.7;;;;;;;1.9;69.23047;935.3741;;;;
2021/04/05 01:47:56;;;;;;;0.7;0.7;;;;;;;1.77;69.56738;935.245;;;;
2021/04/05 01:50:21;;;;;;;2.4;0.6;;;;;;;1.87;69.34863;935.2614;;;;
2021/04/05 01:52:47;;;;;;;2.3;0.8;;;;;;;1.99;68.89941;935.1851;;;;
2021/04/05 01:55:12;;;;;;;1.1;0.7;;;;;;;1.93;69.05566;935.1011;;;;
2021/04/05 01:57:40;;;;;;;1.3;0.8;;;;;;;1.99;68.81934;935.0977;;;;
2021/04/05 02:00:05;;;;;;;1.3;0.8;;;;;;;1.98;68.96191;935.0187;;;;
2021/04/05 02:02:31;;;;;;;0.7;0.7;;;;;;;1.85;69.37793;935.0267;;;;
2021/04/05 02:04:56;;;;;;;0.6;0.6;;;;;;;1.87;69.10254;935.0126;;;;
2021/04/05 02:07:22;;;;;;;2;0.8;;;;;;;1.78;69.70313;934.9949;;;;
2021/04/05 02:09:48;;;;;;;0.3;0.3;;;;;;;1.73;69.94043;935.1054;;;;
2021/04/05 02:12:13;;;;;;;3.3;0.7;;;;;;;1.57;70.76367;935.1365;;;;
2021/04/05 02:14:39;;;;;;;0.6;0.6;;;;;;;1.55;70.91699;935.14;;;;
2021/04/05 02:17:06;;;;;;;1.2;0.9;;;;;;;1.61;70.66016;935.0845;;;;
2021/04/05 02:19:31;;;;;;;1;0.8;;;;;;;1.57;70.9082;935.0691;;;;
2021/04/05 02:21:57;;;;;;;0.6;0.6;;;;;;;1.58;70.86523;935.122;;;;
2021/04/05 02:24:22;;;;;;;3.4;1.3;;;;;;;1.61;70.64746;935.1785;;;;
2021/04/05 02:26:47;;;;;;;1.2;0.7;;;;;;;1.54;71.01563;935.2031;;;;
2021/04/05 02:29:13;;;;;;;0.9;0.9;;;;;;;1.45;71.51465;935.063;;;;
2021/04/05 02:31:40;;;;;;;1.1;0.9;;;;;;;1.55;71.18555;934.9664;;;;
2021/04/05 02:34:06;;;;;;;1.1;0.9;;;;;;;1.43;71.47949;934.9355;;;;
2021/04/05 02:36:31;;;;;;;5.4;1.2;;;;;;;1.1;72.8418;934.9714;;;;
2021/04/05 02:39:01;;;;;;;1.8;0.9;;;;;;;1.14;73.03613;934.9;;;;
2021/04/05 02:41:26;;;;;;;2.2;1.1;;;;;;;1.21;72.91602;934.8233;;;;
2021/04/05 02:43:51;;;;;;;0.5;0.5;;;;;;;1.23;72.76172;934.8002;;;;
2021/04/05 02:46:16;;;;;;;1.5;1;;;;;;;1.44;71.91602;934.8386;;;;
2021/04/05 02:48:43;;;;;;;2.6;0.9;;;;;;;1.56;71.08594;934.8499;;;;
2021/04/05 02:51:08;;;;;;;0.7;0.7;;;;;;;1.65;70.64258;934.9352;;;;
2021/04/05 02:53:34;;;;;;;0.9;0.8;;;;;;;1.55;70.6377;934.8542;;;;
2021/04/05 02:55:59;;;;;;;2.3;1.2;;;;;;;1.41;71.21777;934.8466;;;;
2021/04/05 02:58:25;;;;;;;3.6;0.7;;;;;;;1.27;71.89746;934.867;;;;
2021/04/05 03:00:50;;;;;;;0.5;0.5;;;;;;;1.26;72.00781;934.8549;;;;
2021/04/05 03:03:17;;;;;;;0.8;0.7;;;;;;;1.09;72.82715;934.8306;;;;
2021/04/05 03:05:42;;;;;;;5.2;1.4;;;;;;;0.91;73.7793;934.6909;;;;
2021/04/05 03:08:08;;;;;;;0.8;0.7;;;;;;;0.97;73.83301;934.6609;;;;
2021/04/05 03:10:37;;;;;;;1.1;0.5;;;;;;;1.09;73.38574;934.627;;;;
2021/04/05 03:13:00;;;;;;;0.6;0.6;;;;;;;1.22;72.75977;934.5356;;;;
2021/04/05 03:15:32;;;;;;;1;0.8;;;;;;;1.43;72.1377;934.558;;;;
2021/04/05 03:17:57;;;;;;;2.3;1.2;;;;;;;1.58;71.75977;934.5485;;;;
2021/04/05 03:20:22;;;;;;;0.9;0.6;;;;;;;1.65;71.08984;934.5428;;;;
2021/04/05 03:22:47;;;;;;;0.7;0.6;;;;;;;1.72;70.54297;934.5837;;;;
2021/04/05 03:25:13;;;;;;;1.3;0.8;;;;;;;1.66;69.99512;934.6522;;;;
2021/04/05 03:27:38;;;;;;;2.3;1.2;;;;;;;1.71;69.89258;934.68;;;;
2021/04/05 03:30:03;;;;;;;1.1;1;;;;;;;1.66;70.13086;934.6429;;;;
2021/04/05 03:32:29;;;;;;;1.6;0.6;;;;;;;1.54;70.2334;934.6099;;;;
2021/04/05 03:34:54;;;;;;;1.5;1.1;;;;;;;1.52;70.4541;934.6752;;;;
2021/04/05 03:37:21;;;;;;;0.8;0.6;;;;;;;1.28;71.3291;934.5316;;;;
2021/04/05 03:39:46;;;;;;;0.7;0.6;;;;;;;1.22;71.85547;934.4791;;;;
2021/04/05 03:42:12;;;;;;;1;0.8;;;;;;;1.24;71.84863;934.3663;;;;
2021/04/05 03:44:38;;;;;;;0.5;0.5;;;;;;;1.02;72.71777;934.2977;;;;
2021/04/05 03:47:04;;;;;;;0.7;0.7;;;;;;;0.95;73.30664;934.3014;;;;
2021/04/05 03:49:29;;;;;;;1.1;0.9;;;;;;;0.94;73.39258;934.1983;;;;
2021/04/05 03:51:54;;;;;;;0.7;0.7;;;;;;;0.75;74.34375;934.2935;;;;
2021/04/05 03:54:20;;;;;;;0.7;0.7;;;;;;;0.74;74.33105;934.2297;;;;
2021/04/05 03:56:45;;;;;;;2.2;0.6;;;;;;;0.81;74.16309;934.028;;;;
2021/04/05 03:59:11;;;;;;;1.5;1;;;;;;;0.9;73.7793;934.0019;;;;
2021/04/05 04:02:30;;;;;;;1.4;0.7;;;;;;;1.03;73.09766;933.9756;;;;
2021/04/05 04:04:59;;;;;;;2.4;0.9;;;;;;;0.88;73.33887;933.8898;;;;
2021/04/05 04:07:25;;;;;;;2;1.2;;;;;;;0.85;73.67969;933.8117;;;;
2021/04/05 04:09:46;;;;;;;1.9;0.5;;;;;;;0.8;73.96094;933.7679;;;;
2021/04/05 04:12:12;;;;;;;2.4;0.9;;;;;;;0.85;73.89258;933.7115;;;;
2021/04/05 04:14:37;;;;;;;1.6;0.8;;;;;;;0.76;74.28906;933.6443;;;;
2021/04/05 04:17:02;;;;;;;1.6;0.6;;;;;;;0.72;74.58398;933.631;;;;
2021/04/05 04:19:27;;;;;;;4.6;1.3;;;;;;;0.62;75.02441;933.5214;;;;
2021/04/05 04:21:53;;;;;;;0.4;0.4;;;;;;;0.56;75.25879;933.5291;;;;
2021/04/05 04:24:18;;;;;;;0.4;0.4;;;;;;;0.56;75.13574;933.5072;;;;
2021/04/05 04:26:43;;;;;;;1.7;0.4;;;;;;;0.55;75.18945;933.5036;;;;
2021/04/05 04:29:08;;;;;;;1.8;1.1;;;;;;;0.46;75.66309;933.4241;;;;
2021/04/05 04:31:34;;;;;;;0.7;0.6;;;;;;;0.58;75.23926;933.3858;;;;
2021/04/05 04:33:59;;;;;;;3.4;1.6;;;;;;;0.63;75.03516;933.3635;;;;
2021/04/05 04:36:24;;;;;;;1.8;1;;;;;;;0.81;74.31934;933.3588;;;;
2021/04/05 04:38:50;;;;;;;1.4;1.3;;;;;;;1.02;73.6875;933.3231;;;;
2021/04/05 04:41:15;;;;;;;1.1;1;;;;;;;1.11;73.12109;933.2731;;;;
2021/04/05 04:43:42;;;;;;;6.4;1.4;;;;;;;1.13;72.56738;933.1726;;;;
2021/04/05 04:46:09;;;;;;;1.3;1.2;;;;;;;0.97;73.17383;933.2377;;;;
2021/04/05 04:48:34;;;;;;;2.2;1.8;;;;;;;0.95;73.27148;933.2165;;;;
2021/04/05 04:51:01;;;;;;;2.2;1.5;;;;;;;0.93;73.05664;933.1752;;;;
2021/04/05 04:53:26;;;;;;;4.9;1.5;;;;;;;0.85;73.35645;933.1503;;;;
2021/04/05 04:55:51;;;;;;;2.1;1.6;;;;;;;0.85;73.31152;933.1096;;;;
2021/04/05 04:58:17;;;;;;;1.6;1.2;;;;;;;0.72;73.91309;933.1764;;;;
2021/04/05 05:00:41;;;;;;;1.4;1;;;;;;;0.63;74.31055;933.1333;;;;
2021/04/05 05:03:07;;;;;;;1;0.9;;;;;;;0.56;74.89063;933.1719;;;;
2021/04/05 05:05:32;;;;;;;1.2;0.6;;;;;;;0.63;74.92383;933.228;;;;
2021/04/05 05:07:58;;;;;;;1.1;0.8;;;;;;;0.73;74.43945;933.2184;;;;
2021/04/05 05:10:23;;;;;;;1.3;0.9;;;;;;;0.61;74.82031;933.105;;;;
2021/04/05 05:12:48;;;;;;;1;0.6;;;;;;;0.64;75.00391;933.1264;;;;
2021/04/05 05:15:14;;;;;;;1.6;1.2;;;;;;;0.81;74.3623;933.0303;;;;
2021/04/05 05:17:40;;;;;;;1.6;1.1;;;;;;;0.93;73.5918;932.9855;;;;
2021/04/05 05:20:05;;;;;;;2.5;0.8;;;;;;;0.84;73.89063;932.9573;;;;
2021/04/05 05:22:31;;;;;;;0.8;0.8;;;;;;;0.87;73.73926;932.8798;;;;
2021/04/05 05:24:56;;;;;;;1.4;1;;;;;;;1.03;72.99707;932.8586;;;;
2021/04/05 05:27:21;;;;;;;0.5;0.5;;;;;;;1.19;72.10938;932.8949;;;;
2021/04/05 05:29:46;;;;;;;1;0.8;;;;;;;1.35;71.5;932.8201;;;;
2021/04/05 05:32:12;;;;;;;0.9;0.7;;;;;;;1.57;70.78613;932.7821;;;;
2021/04/05 05:34:37;;;;;;;2.4;0.6;;;;;;;1.67;70.4668;932.7623;;;;
2021/04/05 05:37:02;;;;;;;0.7;0.7;;;;;;;1.8;70.07422;932.7257;;;;
2021/04/05 05:39:28;;;;;;;6.7;0.9;;;;;;;1.91;69.37598;932.7601;;;;
2021/04/05 05:41:53;;;;;;;1.9;0.8;;;;;;;2.01;69.125;932.6783;;;;
2021/04/05 05:44:19;;;;;;;1.3;0.8;;;;;;;2.19;69.12109;932.6445;;;;
2021/04/05 05:46:44;;;;;;;0.8;0.7;;;;;;;2.58;67.82813;932.7003;;;;
2021/04/05 05:49:09;;;;;;;2.7;1.4;;;;;;;3.1;65.62109;932.5022;;;;
2021/04/05 05:51:34;;;;;;;1.7;1.2;;;;;;;3.33;64.90527;932.5475;;;;
2021/04/05 05:54:00;;;;;;;1.8;1.5;;;;;;;3.94;63.17676;932.5744;;;;
2021/04/05 05:56:25;;;;;;;1.6;1.1;;;;;;;4.54;60.75586;932.4624;;;;
2021/04/05 05:58:50;;;;;;;1;0.9;;;;;;;5.06;58.86621;932.4191;;;;
2021/04/05 06:01:16;;;;;;;2.1;1.2;;;;;;;5.54;58.01953;932.507;;;;
2021/04/05 06:03:42;;;;;;;2;1.5;;;;;;;5.83;56.84961;932.524;;;;
2021/04/05 06:06:07;;;;;;;3.3;1.9;;;;;;;6.21;55.53418;932.4991;;;;
2021/04/05 06:08:33;;;;;;;3.7;1.5;;;;;;;6.98;52.38379;932.459;;;;
2021/04/05 06:10:59;;;;;;;0.8;0.5;;;;;;;7.52;49.81836;932.4213;;;;
2021/04/05 06:13:24;;;;;;;1;0.5;;;;;;;8.68;46.63281;932.3331;;;;
2021/04/05 06:15:58;;;;;;;0.7;0.3;;;;;;;9.1;45.78125;932.275;;;;
2021/04/05 06:18:25;;;;;;;0.5;0.4;;;;;;;9.5;43.03125;932.1326;;;;
2021/04/05 06:20:50;;;;;;;0.8;0.6;;;;;;;9.46;43.25586;932.1342;;;;
2021/04/05 06:23:15;;;;;;;0.6;0.5;;;;;;;9.66;42.86621;932.1231;;;;
2021/04/05 06:25:41;;;;;;;0.4;0.3;;;;;;;9.86;41.91699;932.116;;;;
2021/04/05 06:28:08;;;;;;;1;0.6;;;;;;;9.35;43.98535;932.0222;;;;
2021/04/05 06:30:33;;;;;;;1;0.5;;;;;;;10.77;40.94238;932.0037;;;;
2021/04/05 06:32:58;;;;;;;0.5;0.4;;;;;;;11.53;38.35938;931.9524;;;;
2021/04/05 06:35:23;;;;;;;0.3;0.1;;;;;;;11.15;38.54297;931.8569;;;;
2021/04/05 06:37:49;;;;;;;0.6;0.5;;;;;;;11.04;39.59668;931.8859;;;;
2021/04/05 06:40:15;;;;;;;0.2;0.2;;;;;;;10.83;39.07422;931.8583;;;;
2021/04/05 06:42:43;;;;;;;0.6;0.5;;;;;;;10.15;41.1123;931.8049;;;;
2021/04/05 06:45:08;;;;;;;1.2;0.6;;;;;;;10.72;40.13867;931.7475;;;;
2021/04/05 06:47:34;;;;;;;0.3;0.3;;;;;;;11.46;38.95898;931.7224;;;;
2021/04/05 06:49:59;;;;;;;0.9;0.4;;;;;;;12.01;37.72656;931.6283;;;;
2021/04/05 06:52:24;;;;;;;1.3;0.7;;;;;;;12.39;37.00195;931.5414;;;;
2021/04/05 06:54:49;;;;;;;2.9;0.9;;;;;;;12.28;36.62695;931.4384;;;;
2021/04/05 06:57:15;;;;;;;0.1;0.1;;;;;;;12.79;35.65918;931.4008;;;;
2021/04/05 06:59:40;;;;;;;0.4;0.4;;;;;;;13.17;35.25391;931.302;;;;
2021/04/05 07:02:05;;;;;;;4.9;1;;;;;;;13.48;36.6709;931.2352;;;;
2021/04/05 07:04:30;;;;;;;1.3;0.9;;;;;;;12.48;37.13672;931.1919;;;;
2021/04/05 07:06:55;;;;;;;0.4;0.4;;;;;;;13.8;36.16699;931.147;;;;
2021/04/05 07:09:20;;;;;;;0.5;0.4;;;;;;;15.01;33.32715;931.1328;;;;
2021/04/05 07:11:46;;;;;;;0.8;0.4;;;;;;;14.75;32.38477;931.0508;;;;
2021/04/05 07:14:11;;;;;;;0.3;0.3;;;;;;;15.37;31.40332;930.8943;;;;
2021/04/05 07:16:36;;;;;;;1.8;1;;;;;;;15.16;30.24512;930.8761;;;;
2021/04/05 07:19:01;;;;;;;1.1;0.5;;;;;;;15.26;30.11426;930.8591;;;;
2021/04/05 07:21:26;;;;;;;0.3;0.3;;;;;;;16.1;29.11914;930.7633;;;;
2021/04/05 07:23:51;;;;;;;0.3;0.2;;;;;;;15.9;28.48145;930.7822;;;;
2021/04/05 07:26:16;;;;;;;1.2;0.4;;;;;;;16.04;28.4668;930.6965;;;;
2021/04/05 07:28:41;;;;;;;0.4;0.2;;;;;;;16.64;27.68457;930.6278;;;;
2021/04/05 07:31:06;;;;;;;0.1;0.1;;;;;;;16.48;26.57422;930.5199;;;;
2021/04/05 07:33:31;;;;;;;0.6;0.4;;;;;;;16.13;27.46777;930.4196;;;;
2021/04/05 07:35:57;;;;;;;5.5;0.6;;;;;;;17.02;27.38379;930.4777;;;;
2021/04/05 07:38:22;;;;;;;0.2;0.2;;;;;;;17.05;26.98047;930.3683;;;;
2021/04/05 07:40:48;;;;;;;1.1;0.4;;;;;;;15.7;29.3125;930.3617;;;;
2021/04/05 07:43:13;;;;;;;0.2;0.2;;;;;;;15.8;28.44043;930.3065;;;;
2021/04/05 07:45:38;;;;;;;0.3;0.2;;;;;;;16.5;27.98828;930.3233;;;;
2021/04/05 07:48:04;;;;;;;0.3;0.2;;;;;;;17.9;25.7666;930.218;;;;
2021/04/05 07:50:29;;;;;;;1.8;0.5;;;;;;;18.4;25.02832;930.1669;;;;
2021/04/05 07:52:55;;;;;;;0.2;0.1;;;;;;;19.07;24.46094;930.1006;;;;
2021/04/05 07:55:19;;;;;;;0.5;0.4;;;;;;;20.02;22.13379;930.0488;;;;
2021/04/05 07:57:45;;;;;;;0.6;0.2;;;;;;;19.7;23.17871;930.0133;;;;
2021/04/05 08:00:11;;;;;;;0.1;0.1;;;;;;;18.99;24.64258;930.0475;;;;
2021/04/05 08:02:36;;;;;;;0.1;0.1;;;;;;;18.58;24.85254;929.9231;;;;
2021/04/05 08:05:01;;;;;;;0.3;0.2;;;;;;;18.97;23.26855;929.8326;;;;
2021/04/05 08:07:26;;;;;;;0.3;0.3;;;;;;;19.19;24.13086;929.8047;;;;
2021/04/05 08:09:52;;;;;;;0.6;0.2;;;;;;;20.02;23.3125;929.7944;;;;
2021/04/05 08:12:17;;;;;;;0.2;0.2;;;;;;;19.95;22.99414;929.8357;;;;
2021/04/05 08:14:42;;;;;;;0.1;0.1;;;;;;;20.49;22.83496;929.6802;;;;
2021/04/05 08:17:07;;;;;;;0.1;0.1;;;;;;;20.23;23.2998;929.7029;;;;
2021/04/05 08:19:33;;;;;;;0.1;0.1;;;;;;;22.51;20.66309;929.6172;;;;
2021/04/05 08:22:00;;;;;;;1.7;0.3;;;;;;;22.27;21.24902;929.6417;;;;
2021/04/05 08:24:25;;;;;;;1.3;0.5;;;;;;;24.12;19.50098;929.6024;;;;
2021/04/05 08:26:50;;;;;;;3.7;0.4;;;;;;;25.75;17.63379;929.5198;;;;
2021/04/05 08:29:16;;;;;;;0.4;0.1;;;;;;;25.62;17.25098;929.4285;;;;
2021/04/05 08:31:41;;;;;;;0.6;0.4;;;;;;;25.54;17.75586;929.367;;;;
2021/04/05 08:34:06;;;;;;;0.2;0.2;;;;;;;24.54;18.23438;929.2424;;;;
2021/04/05 08:36:32;;;;;;;0.1;0.1;;;;;;;22.03;19.3623;929.2598;;;;
2021/04/05 08:38:57;;;;;;;0.3;0.3;;;;;;;22.7;19.56836;929.2255;;;;
2021/04/05 08:41:22;;;;;;;0.5;0.3;;;;;;;24.59;18.7793;929.1319;;;;
2021/04/05 08:43:46;;;;;;;0.2;0.2;;;;;;;26.09;17.42285;929.1337;;;;
2021/04/05 08:46:12;;;;;;;0.9;0.2;;;;;;;27.37;16.59473;928.991;;;;
2021/04/05 08:48:37;;;;;;;1.3;0.3;;;;;;;28.04;15.5625;928.937;;;;
2021/04/05 08:51:02;;;;;;;0.1;0.1;;;;;;;27.66;17.47168;928.976;;;;
2021/04/05 08:53:27;;;;;;;0.1;0.1;;;;;;;26.64;18.0127;928.9345;;;;
2021/04/05 08:55:52;;;;;;;0.2;0.1;;;;;;;27.86;16.35156;928.8492;;;;
2021/04/05 08:58:17;;;;;;;0.2;0.1;;;;;;;27.02;16.83105;928.8351;;;;
2021/04/05 09:00:42;;;;;;;0;0;;;;;;;28.49;16.68359;928.8535;;;;
2021/04/05 09:03:07;;;;;;;0.1;0.1;;;;;;;28.63;15.1543;928.7714;;;;
2021/04/05 09:05:33;;;;;;;0.7;0.4;;;;;;;28.58;16.21094;928.7115;;;;
2021/04/05 09:07:59;;;;;;;11.1;0.5;;;;;;;28.46;16.33789;928.682;;;;
2021/04/05 09:10:24;;;;;;;0.3;0.2;;;;;;;27.92;16.47266;928.6494;;;;
2021/04/05 09:12:49;;;;;;;0.8;0.2;;;;;;;26.92;17.30078;928.4807;;;;
2021/04/05 09:15:15;;;;;;;0.1;0.1;;;;;;;26.73;17.15137;928.5737;;;;
2021/04/05 09:17:55;;;;;;;2.5;0.5;;;;;;;27.02;17.20996;928.4688;;;;
2021/04/05 09:20:20;;;;;;;0.6;0.1;;;;;;;27.19;17.69043;928.4863;;;;
2021/04/05 09:22:45;;;;;;;0.4;0.2;;;;;;;26.8;18.20898;928.3931;;;;
2021/04/05 09:25:10;;;;;;;0.5;0.3;;;;;;;26.53;17.7832;928.4264;;;;
2021/04/05 09:27:35;;;;;;;0.2;0.2;;;;;;;26.91;17.51367;928.3735;;;;
2021/04/05 09:30:00;;;;;;;2.5;0.2;;;;;;;26.49;17.41504;928.3901;;;;
2021/04/05 09:32:25;;;;;;;0.5;0.3;;;;;;;26.33;18.66309;928.3732;;;;
2021/04/05 09:34:50;;;;;;;2.2;0.3;;;;;;;26.59;17.99902;928.2748;;;;
2021/04/05 09:37:15;;;;;;;0.5;0.1;;;;;;;25.32;19.89551;928.1894;;;;
2021/04/05 09:39:41;;;;;;;1.8;0.3;;;;;;;25.04;19.68262;928.2289;;;;
2021/04/05 09:42:06;;;;;;;0.2;0.2;;;;;;;25.31;19.29297;928.0508;;;;
2021/04/05 09:44:32;;;;;;;1.1;0.1;;;;;;;24.71;19.44434;928.1758;;;;
2021/04/05 09:46:58;;;;;;;0.2;0.1;;;;;;;24.53;20.91016;928.0245;;;;
2021/04/05 09:49:23;;;;;;;0.1;0.1;;;;;;;23.61;20.7959;927.8713;;;;
2021/04/05 09:51:48;;;;;;;0.8;0.5;;;;;;;23.07;20.8418;927.8586;;;;
2021/04/05 09:54:14;;;;;;;0.1;0.1;;;;;;;22.68;21.44629;927.9219;;;;
2021/04/05 09:56:38;;;;;;;0.2;0.1;;;;;;;23.03;20.91016;927.8091;;;;
2021/04/05 09:59:03;;;;;;;0.7;0.5;;;;;;;23.62;20.34961;927.6844;;;;
2021/04/05 10:01:28;;;;;;;0.4;0.2;;;;;;;23.36;20.90234;927.7377;;;;
2021/04/05 10:03:53;;;;;;;0.2;0.1;;;;;;;23.14;21.10352;927.6031;;;;
2021/04/05 10:06:19;;;;;;;0.1;0.1;;;;;;;23.22;21.23633;927.5723;;;;
2021/04/05 10:08:44;;;;;;;0.3;0.3;;;;;;;21.76;21.76367;927.658;;;;
2021/04/05 10:11:09;;;;;;;1;0.2;;;;;;;21.23;21.73828;927.5413;;;;
2021/04/05 10:13:35;;;;;;;0.2;0.2;;;;;;;21.63;21.73535;927.4615;;;;
2021/04/05 10:16:08;;;;;;;0.2;0.2;;;;;;;20.79;22.60547;927.51;;;;
2021/04/05 10:18:33;;;;;;;0;0;;;;;;;21.24;23.78613;927.4578;;;;
2021/04/05 10:21:01;;;;;;;0.3;0.3;;;;;;;21.04;23.2959;927.3278;;;;
2021/04/05 10:23:28;;;;;;;1.2;0.3;;;;;;;21.4;22.02734;927.2922;;;;
2021/04/05 10:25:51;;;;;;;0.4;0.2;;;;;;;21.49;23.30762;927.3842;;;;
2021/04/05 10:28:16;;;;;;;0.2;0.2;;;;;;;21.22;23.87891;927.2477;;;;
2021/04/05 10:30:41;;;;;;;0.1;0.1;;;;;;;20.73;22.91699;927.1342;;;;
2021/04/05 10:33:06;;;;;;;0.2;0.2;;;;;;;19.5;25.04492;927.1387;;;;
2021/04/05 10:35:32;;;;;;;0.5;0.2;;;;;;;20.03;23.38281;927.0884;;;;
2021/04/05 10:37:57;;;;;;;0.3;0.2;;;;;;;20.02;24.3623;926.8641;;;;
2021/04/05 10:40:22;;;;;;;0.4;0.2;;;;;;;18.83;25.18164;926.9453;;;;
2021/04/05 10:42:48;;;;;;;0.1;0.1;;;;;;;19.32;24.96484;926.9055;;;;
2021/04/05 10:45:12;;;;;;;0.1;0.1;;;;;;;19.84;24.11914;926.8911;;;;
2021/04/05 10:47:39;;;;;;;0.4;0.2;;;;;;;19.4;23.29102;926.8819;;;;
2021/04/05 10:50:05;;;;;;;0.6;0.1;;;;;;;18.97;18.8916;926.8773;;;;
2021/04/05 10:52:30;;;;;;;1.7;0.3;;;;;;;18.75;19.67383;926.8055;;;;
2021/04/05 10:54:56;;;;;;;0.2;0.2;;;;;;;18.98;19.62598;926.6865;;;;
2021/04/05 10:57:21;;;;;;;0.8;0.4;;;;;;;18.4;22.33203;926.617;;;;
2021/04/05 10:59:46;;;;;;;1.3;0.7;;;;;;;18.28;22.65137;926.6206;;;;
2021/04/05 11:02:11;;;;;;;5;0.6;;;;;;;17.75;20.10449;926.685;;;;
2021/04/05 11:04:37;;;;;;;0.1;0;;;;;;;17.75;21.97363;926.652;;;;
2021/04/05 11:07:05;;;;;;;8.6;0.8;;;;;;;17.71;24.27051;926.5883;;;;
2021/04/05 11:09:30;;;;;;;0.5;0.3;;;;;;;18.16;22.21484;926.6273;;;;
2021/04/05 11:11:55;;;;;;;1.1;0.4;;;;;;;18.76;22.47754;926.6371;;;;
2021/04/05 11:14:20;;;;;;;0.6;0.3;;;;;;;19.1;23.05371;926.6183;;;;
2021/04/05 11:16:45;;;;;;;0.8;0.2;;;;;;;18.95;23.91895;926.6935;;;;
2021/04/05 11:19:13;;;;;;;0.8;0.1;;;;;;;18.57;21.71191;926.6692;;;;
2021/04/05 11:21:38;;;;;;;0.2;0.1;;;;;;;18.59;19.95703;926.5596;;;;
2021/04/05 11:24:01;;;;;;;0.2;0.1;;;;;;;18.45;19.71777;926.5598;;;;
2021/04/05 11:26:27;;;;;;;0;0;;;;;;;18.52;18.75684;926.3736;;;;
2021/04/05 11:28:52;;;;;;;1.5;0.6;;;;;;;18.73;18.14844;926.4037;;;;
2021/04/05 11:31:17;;;;;;;0.9;0.2;;;;;;;18.76;17.05664;926.5009;;;;
2021/04/05 11:33:42;;;;;;;1.1;0.1;;;;;;;19.32;18.16113;926.2897;;;;
2021/04/05 11:36:07;;;;;;;0.9;0.5;;;;;;;20.13;17.77441;926.2877;;;;
2021/04/05 11:38:33;;;;;;;0.4;0.3;;;;;;;20.49;16.11914;926.2028;;;;
2021/04/05 11:40:58;;;;;;;0.1;0.1;;;;;;;21.06;17.55469;926.1912;;;;
2021/04/05 11:43:25;;;;;;;0.2;0.1;;;;;;;20.52;16.03809;926.2939;;;;
2021/04/05 11:45:50;;;;;;;0.2;0.2;;;;;;;20.68;17.72656;926.2031;;;;
2021/04/05 11:48:15;;;;;;;0;0;;;;;;;21.05;15.14453;926.2079;;;;
2021/04/05 11:50:43;;;;;;;0.1;0.1;;;;;;;21.16;16.03711;926.1287;;;;
2021/04/05 11:53:06;;;;;;;0.1;0.1;;;;;;;21.55;16.13379;925.9933;;;;
2021/04/05 11:55:31;;;;;;;0.6;0.2;;;;;;;21.14;16.50488;925.9637;;;;
2021/04/05 11:57:56;;;;;;;3.3;0.6;;;;;;;20.78;16.3623;926.1049;;;;
2021/04/05 12:00:22;;;;;;;1.1;0.4;;;;;;;21.51;16.75293;925.882;;;;
2021/04/05 12:02:47;;;;;;;0.1;0.1;;;;;;;20.81;15.17188;925.8527;;;;
2021/04/05 12:05:11;;;;;;;2.9;0.3;;;;;;;21.24;15.83008;925.882;;;;
2021/04/05 12:07:37;;;;;;;0.8;0.4;;;;;;;20.9;15.66602;925.8304;;;;
2021/04/05 12:10:02;;;;;;;0.2;0.1;;;;;;;20.73;16.93359;925.7787;;;;
2021/04/05 12:12:28;;;;;;;1.8;0.6;;;;;;;22.04;16.52637;925.8825;;;;
2021/04/05 12:14:53;;;;;;;0.9;0.3;;;;;;;21.71;14.78125;925.7325;;;;
2021/04/05 12:17:20;;;;;;;1.1;0.2;;;;;;;21.19;15.52344;925.7759;;;;
2021/04/05 12:19:45;;;;;;;3;0.3;;;;;;;21.39;14.84082;925.56;;;;
2021/04/05 12:22:12;;;;;;;0.6;0.2;;;;;;;21.48;14.90234;925.6708;;;;
2021/04/05 12:24:37;;;;;;;2;0.6;;;;;;;20.94;14.24023;925.7209;;;;
2021/04/05 12:27:02;;;;;;;0.7;0.3;;;;;;;21.32;16.16016;925.4669;;;;
2021/04/05 12:29:28;;;;;;;0.3;0.3;;;;;;;20.93;14.42773;925.4849;;;;
2021/04/05 12:31:54;;;;;;;0.2;0.2;;;;;;;20.96;15.15332;925.5387;;;;
2021/04/05 12:34:20;;;;;;;0.6;0.2;;;;;;;21.06;15.22754;925.4584;;;;
2021/04/05 12:36:45;;;;;;;0.2;0.2;;;;;;;20.92;14.47363;925.3934;;;;
2021/04/05 12:39:10;;;;;;;0.2;0.1;;;;;;;21.51;14.25879;925.5933;;;;
2021/04/05 12:41:35;;;;;;;0.1;0;;;;;;;21.17;14.85645;925.4292;;;;
2021/04/05 12:44:00;;;;;;;0.2;0.1;;;;;;;21.03;15.69336;925.4531;;;;
2021/04/05 12:46:26;;;;;;;0;0;;;;;;;20.56;15.95801;925.3987;;;;
2021/04/05 12:48:51;;;;;;;1.6;0.2;;;;;;;20.53;15.15039;925.5475;;;;
2021/04/05 12:51:16;;;;;;;0.3;0.3;;;;;;;20.86;16.34277;925.5002;;;;
2021/04/05 12:53:41;;;;;;;0;0;;;;;;;21.17;14.83301;925.4172;;;;
2021/04/05 12:56:06;;;;;;;0.1;0.1;;;;;;;21.18;13.7334;925.3714;;;;
2021/04/05 12:58:31;;;;;;;1;0.5;;;;;;;21.15;14.70313;925.2825;;;;
2021/04/05 13:00:58;;;;;;;0.2;0.1;;;;;;;21.6;15.49219;925.3282;;;;
2021/04/05 13:03:23;;;;;;;0.1;0.1;;;;;;;21.15;14.68066;925.3489;;;;
2021/04/05 13:05:48;;;;;;;0.4;0.1;;;;;;;21.68;16.29102;925.3267;;;;
2021/04/05 13:08:13;;;;;;;0.2;0.2;;;;;;;21.81;13.32031;925.1396;;;;
2021/04/05 13:10:40;;;;;;;0.3;0.3;;;;;;;21.5;13.97754;925.2737;;;;
2021/04/05 13:13:05;;;;;;;0.1;0;;;;;;;20.86;14.42578;925.2645;;;;
2021/04/05 13:15:41;;;;;;;0.4;0.2;;;;;;;20.95;14.54492;925.0792;;;;
2021/04/05 13:18:06;;;;;;;0.4;0.1;;;;;;;20.98;15.71582;925.3524;;;;
2021/04/05 13:20:31;;;;;;;0.1;0;;;;;;;20.82;14.02637;925.4048;;;;
2021/04/05 13:22:56;;;;;;;0.2;0.2;;;;;;;20.12;14.7627;925.2383;;;;
2021/04/05 13:25:22;;;;;;;0.2;0.2;;;;;;;19.95;16.42578;925.0789;;;;
2021/04/05 13:27:47;;;;;;;0.1;0.1;;;;;;;20.25;14.39355;925.0867;;;;
2021/04/05 13:30:12;;;;;;;0.8;0.2;;;;;;;20.49;14.40137;925.0441;;;;
2021/04/05 13:32:37;;;;;;;0.1;0;;;;;;;20.93;14.50977;924.8644;;;;
2021/04/05 13:35:02;;;;;;;0.1;0.1;;;;;;;21.62;15.49219;925.0695;;;;
2021/04/05 13:37:28;;;;;;;0.3;0.1;;;;;;;21.27;13.90039;925.064;;;;
2021/04/05 13:39:54;;;;;;;2.9;0.6;;;;;;;20.52;14.4375;924.9908;;;;
2021/04/05 13:42:19;;;;;;;0;0;;;;;;;19.84;14.77637;924.9525;;;;
2021/04/05 13:44:44;;;;;;;0.2;0.1;;;;;;;20.01;13.80273;924.8901;;;;
2021/04/05 13:47:09;;;;;;;0;0;;;;;;;19.62;14.19824;924.821;;;;
2021/04/05 13:49:37;;;;;;;0.1;0.1;;;;;;;19.54;14.63867;924.9959;;;;
2021/04/05 13:52:01;;;;;;;0.1;0.1;;;;;;;18.74;14.99609;924.8734;;;;
2021/04/05 13:54:27;;;;;;;0.1;0.1;;;;;;;18.69;15.34375;924.8619;;;;
2021/04/05 13:56:52;;;;;;;0.1;0.1;;;;;;;18.56;15.49023;924.8444;;;;
2021/04/05 13:59:17;;;;;;;0.6;0.1;;;;;;;18.44;15.4043;924.9594;;;;
2021/04/05 14:01:42;;;;;;;0.6;0.3;;;;;;;18.38;14.77441;924.7542;;;;
2021/04/05 14:04:07;;;;;;;0.1;0.1;;;;;;;18.16;15.77832;924.8061;;;;
2021/04/05 14:06:32;;;;;;;0;0;;;;;;;18.15;16.30078;924.6506;;;;
2021/04/05 14:08:58;;;;;;;0.1;0.1;;;;;;;18.22;16.89648;924.5932;;;;
2021/04/05 14:11:22;;;;;;;0.2;0.1;;;;;;;18.19;16.13867;924.5438;;;;
2021/04/05 14:13:49;;;;;;;0.8;0.2;;;;;;;18.26;16.17676;924.6948;;;;
2021/04/05 14:16:16;;;;;;;0.9;0.2;;;;;;;17.88;16.92969;924.6904;;;;
2021/04/05 14:18:41;;;;;;;2.7;0.2;;;;;;;18.03;16.98145;924.5496;;;;
2021/04/05 14:21:06;;;;;;;0.1;0.1;;;;;;;17.96;17.02539;924.4981;;;;